Archival Weather

Beaver Creek

Beaver Creek, Yukon (CYXQ)

Report from: Thursday, December 7, 2023 9:26 AM PST
Current time: Tuesday, April 23, 2024 12:24 AM PDT

Current weather – Weather history – Daily summaries
Weather forecast

Present weatherLight snow
Temperature-18.0°C (-0.4°F)
Dew point-20.0°C (-4.0°F)
Winds Calm
Visibility20 mi. (32.2 km)
Clouds Scattered clouds 5,500 ft. (1,676 m)
Ceiling: Overcast 8,000 ft. (2,438 m)
Altimeter29.58 in.Hg (1002 mB)
Relative humidity84 %
Density altitude-3,995 ft. (-1,218 m)
Sea-level pressure100.8 kPa (1008 mB, 29.76 in.Hg)
Remarks Special weather observation
Flight conditions Visual Meteorological Conditions
Raw dataSPECI CYXQ 071726Z 00000KT 20SM -SN SCT055 OVC080 M18/M20 A2958 RMK SC4AC4 SLP079
An error has occurred. This application may no longer respond until reloaded. Reload 🗙